sensor_id;sensor_type;location;lat;lon;timestamp;P1;durP1;ratioP1;P2;durP2;ratioP2
36963;SDS011;22878;48.616;35.326;2022-07-29T00:02:17;4.22;;;1.95;;
36963;SDS011;22878;48.616;35.326;2022-07-29T00:04:43;3.02;;;2.08;;
36963;SDS011;22878;48.616;35.326;2022-07-29T00:07:09;4.25;;;2.30;;
36963;SDS011;22878;48.616;35.326;2022-07-29T00:09:35;2.60;;;2.10;;
36963;SDS011;22878;48.616;35.326;2022-07-29T00:12:02;3.65;;;2.17;;
36963;SDS011;22878;48.616;35.326;2022-07-29T00:14:29;7.25;;;2.35;;
36963;SDS011;22878;48.616;35.326;2022-07-29T00:16:55;5.58;;;2.17;;
36963;SDS011;22878;48.616;35.326;2022-07-29T00:19:21;6.40;;;2.30;;
36963;SDS011;22878;48.616;35.326;2022-07-29T00:21:47;2.65;;;1.92;;
36963;SDS011;22878;48.616;35.326;2022-07-29T00:24:13;4.53;;;2.60;;
36963;SDS011;22878;48.616;35.326;2022-07-29T00:26:39;2.60;;;1.92;;
36963;SDS011;22878;48.616;35.326;2022-07-29T00:29:05;4.08;;;2.17;;
36963;SDS011;22878;48.616;35.326;2022-07-29T00:31:32;2.90;;;2.12;;
36963;SDS011;22878;48.616;35.326;2022-07-29T00:33:58;4.42;;;2.50;;
36963;SDS011;22878;48.616;35.326;2022-07-29T00:36:24;4.87;;;2.50;;
36963;SDS011;22878;48.616;35.326;2022-07-29T00:38:50;4.67;;;2.35;;
36963;SDS011;22878;48.616;35.326;2022-07-29T00:41:17;4.47;;;2.30;;
36963;SDS011;22878;48.616;35.326;2022-07-29T00:43:44;6.95;;;2.33;;
36963;SDS011;22878;48.616;35.326;2022-07-29T00:46:10;8.90;;;2.40;;
36963;SDS011;22878;48.616;35.326;2022-07-29T00:48:37;5.42;;;2.50;;
36963;SDS011;22878;48.616;35.326;2022-07-29T00:51:04;3.95;;;2.02;;
36963;SDS011;22878;48.616;35.326;2022-07-29T00:53:32;6.17;;;2.50;;
36963;SDS011;22878;48.616;35.326;2022-07-29T00:55:59;6.30;;;2.30;;
36963;SDS011;22878;48.616;35.326;2022-07-29T00:58:26;3.60;;;2.20;;
36963;SDS011;22878;48.616;35.326;2022-07-29T01:00:52;4.20;;;1.90;;
36963;SDS011;22878;48.616;35.326;2022-07-29T01:03:18;7.65;;;2.22;;
36963;SDS011;22878;48.616;35.326;2022-07-29T01:05:44;5.08;;;2.30;;
36963;SDS011;22878;48.616;35.326;2022-07-29T01:08:11;2.55;;;2.20;;
36963;SDS011;22878;48.616;35.326;2022-07-29T01:10:39;7.15;;;2.85;;
36963;SDS011;22878;48.616;35.326;2022-07-29T01:13:08;4.95;;;2.50;;
36963;SDS011;22878;48.616;35.326;2022-07-29T01:26:57;4.05;;;2.15;;
36963;SDS011;22878;48.616;35.326;2022-07-29T01:32:29;7.75;;;2.22;;
36963;SDS011;22878;48.616;35.326;2022-07-29T01:37:46;6.12;;;2.62;;
36963;SDS011;22878;48.616;35.326;2022-07-29T01:40:24;3.62;;;2.50;;
36963;SDS011;22878;48.616;35.326;2022-07-29T01:42:57;3.37;;;2.25;;
36963;SDS011;22878;48.616;35.326;2022-07-29T01:50:49;3.00;;;2.10;;
36963;SDS011;22878;48.616;35.326;2022-07-29T01:53:27;7.65;;;2.42;;
36963;SDS011;22878;48.616;35.326;2022-07-29T01:55:59;6.33;;;2.50;;
36963;SDS011;22878;48.616;35.326;2022-07-29T01:58:27;2.85;;;2.30;;
36963;SDS011;22878;48.616;35.326;2022-07-29T02:00:57;5.20;;;2.60;;
36963;SDS011;22878;48.616;35.326;2022-07-29T02:03:25;3.67;;;2.27;;
36963;SDS011;22878;48.616;35.326;2022-07-29T02:05:53;5.05;;;2.47;;
36963;SDS011;22878;48.616;35.326;2022-07-29T02:08:22;6.58;;;2.50;;
36963;SDS011;22878;48.616;35.326;2022-07-29T02:10:52;4.65;;;2.50;;
36963;SDS011;22878;48.616;35.326;2022-07-29T02:13:20;5.22;;;2.37;;
36963;SDS011;22878;48.616;35.326;2022-07-29T02:15:49;4.05;;;2.60;;
36963;SDS011;22878;48.616;35.326;2022-07-29T02:18:19;4.75;;;2.45;;
36963;SDS011;22878;48.616;35.326;2022-07-29T02:20:48;6.25;;;2.37;;
36963;SDS011;22878;48.616;35.326;2022-07-29T02:23:19;7.22;;;2.60;;
36963;SDS011;22878;48.616;35.326;2022-07-29T02:25:51;3.47;;;2.00;;
36963;SDS011;22878;48.616;35.326;2022-07-29T02:28:22;3.72;;;2.52;;
36963;SDS011;22878;48.616;35.326;2022-07-29T02:30:51;6.53;;;2.80;;
36963;SDS011;22878;48.616;35.326;2022-07-29T02:33:19;8.13;;;2.80;;
36963;SDS011;22878;48.616;35.326;2022-07-29T02:35:47;6.70;;;3.05;;
36963;SDS011;22878;48.616;35.326;2022-07-29T02:38:15;5.47;;;3.37;;
36963;SDS011;22878;48.616;35.326;2022-07-29T02:41:13;7.42;;;2.70;;
36963;SDS011;22878;48.616;35.326;2022-07-29T02:44:04;4.15;;;2.80;;
36963;SDS011;22878;48.616;35.326;2022-07-29T02:46:37;7.25;;;2.92;;
36963;SDS011;22878;48.616;35.326;2022-07-29T02:49:09;5.78;;;2.50;;
36963;SDS011;22878;48.616;35.326;2022-07-29T02:51:58;7.92;;;2.80;;
36963;SDS011;22878;48.616;35.326;2022-07-29T02:57:21;6.03;;;2.50;;
36963;SDS011;22878;48.616;35.326;2022-07-29T02:59:54;5.75;;;2.47;;
36963;SDS011;22878;48.616;35.326;2022-07-29T03:02:25;4.72;;;2.50;;
36963;SDS011;22878;48.616;35.326;2022-07-29T03:04:52;5.30;;;3.02;;
36963;SDS011;22878;48.616;35.326;2022-07-29T03:07:21;5.53;;;2.70;;
36963;SDS011;22878;48.616;35.326;2022-07-29T03:09:48;4.65;;;2.42;;
36963;SDS011;22878;48.616;35.326;2022-07-29T03:12:15;5.47;;;3.05;;
36963;SDS011;22878;48.616;35.326;2022-07-29T03:14:42;4.80;;;3.02;;
36963;SDS011;22878;48.616;35.326;2022-07-29T03:17:09;5.42;;;3.20;;
36963;SDS011;22878;48.616;35.326;2022-07-29T03:19:36;7.78;;;3.08;;
36963;SDS011;22878;48.616;35.326;2022-07-29T03:22:02;8.35;;;3.45;;
36963;SDS011;22878;48.616;35.326;2022-07-29T03:24:33;8.20;;;2.52;;
36963;SDS011;22878;48.616;35.326;2022-07-29T03:27:01;3.85;;;2.65;;
36963;SDS011;22878;48.616;35.326;2022-07-29T03:29:29;5.35;;;2.92;;
36963;SDS011;22878;48.616;35.326;2022-07-29T03:31:55;7.95;;;2.90;;
36963;SDS011;22878;48.616;35.326;2022-07-29T03:34:21;4.33;;;2.67;;
36963;SDS011;22878;48.616;35.326;2022-07-29T03:36:47;5.50;;;2.75;;
36963;SDS011;22878;48.616;35.326;2022-07-29T03:39:15;6.55;;;2.60;;
36963;SDS011;22878;48.616;35.326;2022-07-29T03:41:47;6.67;;;2.80;;
36963;SDS011;22878;48.616;35.326;2022-07-29T03:44:16;5.58;;;2.47;;
36963;SDS011;22878;48.616;35.326;2022-07-29T03:46:44;5.70;;;2.80;;
36963;SDS011;22878;48.616;35.326;2022-07-29T03:49:14;2.95;;;2.33;;
36963;SDS011;22878;48.616;35.326;2022-07-29T03:51:43;3.85;;;2.52;;
36963;SDS011;22878;48.616;35.326;2022-07-29T03:54:09;4.00;;;2.10;;
36963;SDS011;22878;48.616;35.326;2022-07-29T03:56:37;3.98;;;1.72;;
36963;SDS011;22878;48.616;35.326;2022-07-29T03:59:07;3.77;;;2.70;;
36963;SDS011;22878;48.616;35.326;2022-07-29T04:01:34;7.15;;;2.50;;
36963;SDS011;22878;48.616;35.326;2022-07-29T04:04:01;4.67;;;2.08;;
36963;SDS011;22878;48.616;35.326;2022-07-29T04:06:36;5.95;;;2.10;;
36963;SDS011;22878;48.616;35.326;2022-07-29T04:09:05;5.25;;;2.25;;
36963;SDS011;22878;48.616;35.326;2022-07-29T04:11:32;4.97;;;2.10;;
36963;SDS011;22878;48.616;35.326;2022-07-29T04:13:59;3.08;;;2.17;;
36963;SDS011;22878;48.616;35.326;2022-07-29T04:16:25;4.83;;;2.25;;
36963;SDS011;22878;48.616;35.326;2022-07-29T04:18:51;5.37;;;2.40;;
36963;SDS011;22878;48.616;35.326;2022-07-29T04:21:17;5.35;;;2.50;;
36963;SDS011;22878;48.616;35.326;2022-07-29T04:23:43;4.08;;;2.15;;
36963;SDS011;22878;48.616;35.326;2022-07-29T04:26:10;8.25;;;2.05;;
36963;SDS011;22878;48.616;35.326;2022-07-29T04:28:36;3.83;;;2.22;;
36963;SDS011;22878;48.616;35.326;2022-07-29T04:31:04;8.00;;;2.47;;
36963;SDS011;22878;48.616;35.326;2022-07-29T04:33:32;3.58;;;2.47;;
36963;SDS011;22878;48.616;35.326;2022-07-29T04:35:58;3.00;;;2.20;;
36963;SDS011;22878;48.616;35.326;2022-07-29T04:38:24;3.75;;;2.33;;
36963;SDS011;22878;48.616;35.326;2022-07-29T04:40:50;3.50;;;2.62;;
36963;SDS011;22878;48.616;35.326;2022-07-29T04:43:16;5.45;;;2.02;;
36963;SDS011;22878;48.616;35.326;2022-07-29T04:48:10;2.67;;;2.30;;
36963;SDS011;22878;48.616;35.326;2022-07-29T04:50:40;3.17;;;2.40;;
36963;SDS011;22878;48.616;35.326;2022-07-29T04:53:07;6.47;;;2.77;;
36963;SDS011;22878;48.616;35.326;2022-07-29T04:55:35;4.75;;;2.30;;
36963;SDS011;22878;48.616;35.326;2022-07-29T04:58:01;6.08;;;2.70;;
36963;SDS011;22878;48.616;35.326;2022-07-29T05:00:27;8.25;;;2.58;;
36963;SDS011;22878;48.616;35.326;2022-07-29T05:02:53;5.00;;;2.72;;
36963;SDS011;22878;48.616;35.326;2022-07-29T05:05:19;3.72;;;2.30;;
36963;SDS011;22878;48.616;35.326;2022-07-29T05:07:46;4.42;;;2.52;;
36963;SDS011;22878;48.616;35.326;2022-07-29T05:10:12;2.75;;;2.20;;
36963;SDS011;22878;48.616;35.326;2022-07-29T05:12:41;6.05;;;2.52;;
36963;SDS011;22878;48.616;35.326;2022-07-29T05:15:07;3.92;;;2.35;;
36963;SDS011;22878;48.616;35.326;2022-07-29T05:17:34;2.98;;;2.47;;
36963;SDS011;22878;48.616;35.326;2022-07-29T05:20:00;5.72;;;2.40;;
36963;SDS011;22878;48.616;35.326;2022-07-29T05:22:27;3.98;;;2.30;;
36963;SDS011;22878;48.616;35.326;2022-07-29T05:24:56;5.15;;;2.45;;
36963;SDS011;22878;48.616;35.326;2022-07-29T05:27:22;4.33;;;2.40;;
36963;SDS011;22878;48.616;35.326;2022-07-29T05:29:48;6.08;;;2.40;;
36963;SDS011;22878;48.616;35.326;2022-07-29T05:32:14;5.03;;;2.50;;
36963;SDS011;22878;48.616;35.326;2022-07-29T05:34:40;3.55;;;2.40;;
36963;SDS011;22878;48.616;35.326;2022-07-29T05:37:07;2.42;;;2.22;;
36963;SDS011;22878;48.616;35.326;2022-07-29T05:39:38;5.10;;;2.40;;
36963;SDS011;22878;48.616;35.326;2022-07-29T05:42:10;3.37;;;2.47;;
36963;SDS011;22878;48.616;35.326;2022-07-29T05:44:37;4.85;;;2.52;;
36963;SDS011;22878;48.616;35.326;2022-07-29T05:47:04;3.15;;;2.35;;
36963;SDS011;22878;48.616;35.326;2022-07-29T05:49:31;3.27;;;2.40;;
36963;SDS011;22878;48.616;35.326;2022-07-29T05:51:58;9.90;;;4.20;;
36963;SDS011;22878;48.616;35.326;2022-07-29T05:54:24;10.98;;;2.25;;
36963;SDS011;22878;48.616;35.326;2022-07-29T05:56:50;3.92;;;2.45;;
36963;SDS011;22878;48.616;35.326;2022-07-29T05:59:16;3.90;;;2.08;;
36963;SDS011;22878;48.616;35.326;2022-07-29T06:01:43;4.00;;;2.22;;
36963;SDS011;22878;48.616;35.326;2022-07-29T06:04:09;7.60;;;2.77;;
36963;SDS011;22878;48.616;35.326;2022-07-29T06:06:35;3.55;;;2.10;;
36963;SDS011;22878;48.616;35.326;2022-07-29T06:09:01;2.47;;;2.02;;
36963;SDS011;22878;48.616;35.326;2022-07-29T06:11:28;3.00;;;2.20;;
36963;SDS011;22878;48.616;35.326;2022-07-29T06:13:54;7.53;;;2.30;;
36963;SDS011;22878;48.616;35.326;2022-07-29T06:16:20;3.95;;;2.67;;
36963;SDS011;22878;48.616;35.326;2022-07-29T06:18:46;2.47;;;2.27;;
36963;SDS011;22878;48.616;35.326;2022-07-29T06:21:12;3.35;;;2.62;;
36963;SDS011;22878;48.616;35.326;2022-07-29T06:23:38;7.55;;;2.30;;
36963;SDS011;22878;48.616;35.326;2022-07-29T06:26:05;4.05;;;2.10;;
36963;SDS011;22878;48.616;35.326;2022-07-29T06:28:31;2.85;;;2.58;;
36963;SDS011;22878;48.616;35.326;2022-07-29T06:30:58;6.55;;;2.10;;
36963;SDS011;22878;48.616;35.326;2022-07-29T06:33:24;12.60;;;2.80;;
36963;SDS011;22878;48.616;35.326;2022-07-29T06:35:50;4.25;;;2.17;;
36963;SDS011;22878;48.616;35.326;2022-07-29T06:38:16;3.30;;;2.30;;
36963;SDS011;22878;48.616;35.326;2022-07-29T06:40:42;4.30;;;2.20;;
36963;SDS011;22878;48.616;35.326;2022-07-29T06:43:25;4.00;;;1.95;;
36963;SDS011;22878;48.616;35.326;2022-07-29T06:46:04;5.12;;;2.10;;
36963;SDS011;22878;48.616;35.326;2022-07-29T06:48:34;6.85;;;2.55;;
36963;SDS011;22878;48.616;35.326;2022-07-29T06:51:02;4.72;;;2.40;;
36963;SDS011;22878;48.616;35.326;2022-07-29T06:53:30;2.45;;;2.00;;
36963;SDS011;22878;48.616;35.326;2022-07-29T06:55:57;2.22;;;1.95;;
36963;SDS011;22878;48.616;35.326;2022-07-29T06:58:24;2.55;;;2.08;;
36963;SDS011;22878;48.616;35.326;2022-07-29T07:00:51;5.70;;;2.10;;
36963;SDS011;22878;48.616;35.326;2022-07-29T07:03:18;5.97;;;2.33;;
36963;SDS011;22878;48.616;35.326;2022-07-29T07:10:44;6.62;;;2.35;;
36963;SDS011;22878;48.616;35.326;2022-07-29T07:13:10;5.47;;;2.20;;
36963;SDS011;22878;48.616;35.326;2022-07-29T07:15:37;4.80;;;2.40;;
36963;SDS011;22878;48.616;35.326;2022-07-29T07:18:04;2.77;;;2.33;;
36963;SDS011;22878;48.616;35.326;2022-07-29T07:20:32;26.17;;;2.98;;
36963;SDS011;22878;48.616;35.326;2022-07-29T07:22:59;3.87;;;2.15;;
36963;SDS011;22878;48.616;35.326;2022-07-29T07:25:25;2.80;;;2.30;;
36963;SDS011;22878;48.616;35.326;2022-07-29T07:27:51;7.87;;;2.08;;
36963;SDS011;22878;48.616;35.326;2022-07-29T07:30:17;4.80;;;2.10;;
36963;SDS011;22878;48.616;35.326;2022-07-29T07:32:44;2.05;;;1.95;;
36963;SDS011;22878;48.616;35.326;2022-07-29T07:35:10;2.10;;;1.90;;
36963;SDS011;22878;48.616;35.326;2022-07-29T07:37:36;2.37;;;2.05;;
36963;SDS011;22878;48.616;35.326;2022-07-29T07:40:03;4.62;;;1.90;;
36963;SDS011;22878;48.616;35.326;2022-07-29T07:42:30;2.27;;;2.08;;
36963;SDS011;22878;48.616;35.326;2022-07-29T07:44:58;4.60;;;2.00;;
36963;SDS011;22878;48.616;35.326;2022-07-29T07:47:27;2.62;;;1.82;;
36963;SDS011;22878;48.616;35.326;2022-07-29T07:49:53;1.80;;;1.70;;
36963;SDS011;22878;48.616;35.326;2022-07-29T07:52:20;2.90;;;1.90;;
36963;SDS011;22878;48.616;35.326;2022-07-29T07:54:47;3.17;;;2.00;;
36963;SDS011;22878;48.616;35.326;2022-07-29T07:57:14;2.10;;;1.90;;
36963;SDS011;22878;48.616;35.326;2022-07-29T07:59:42;2.20;;;1.72;;
36963;SDS011;22878;48.616;35.326;2022-07-29T08:02:10;3.50;;;2.02;;
36963;SDS011;22878;48.616;35.326;2022-07-29T08:07:26;2.45;;;1.67;;
36963;SDS011;22878;48.616;35.326;2022-07-29T08:10:08;4.65;;;1.77;;
36963;SDS011;22878;48.616;35.326;2022-07-29T08:12:42;6.42;;;2.02;;
36963;SDS011;22878;48.616;35.326;2022-07-29T08:15:08;1.92;;;1.77;;
36963;SDS011;22878;48.616;35.326;2022-07-29T08:17:35;7.20;;;1.90;;
36963;SDS011;22878;48.616;35.326;2022-07-29T08:20:01;3.30;;;1.60;;
36963;SDS011;22878;48.616;35.326;2022-07-29T08:22:30;3.77;;;1.90;;
36963;SDS011;22878;48.616;35.326;2022-07-29T08:24:57;5.20;;;1.75;;
36963;SDS011;22878;48.616;35.326;2022-07-29T08:27:23;19.12;;;2.30;;
36963;SDS011;22878;48.616;35.326;2022-07-29T08:29:51;3.40;;;2.15;;
36963;SDS011;22878;48.616;35.326;2022-07-29T08:32:17;2.62;;;1.62;;
36963;SDS011;22878;48.616;35.326;2022-07-29T08:34:43;3.33;;;1.50;;
36963;SDS011;22878;48.616;35.326;2022-07-29T08:37:11;4.55;;;1.95;;
36963;SDS011;22878;48.616;35.326;2022-07-29T08:39:37;2.52;;;1.62;;
36963;SDS011;22878;48.616;35.326;2022-07-29T08:42:04;2.58;;;1.50;;
36963;SDS011;22878;48.616;35.326;2022-07-29T08:44:31;4.37;;;1.50;;
36963;SDS011;22878;48.616;35.326;2022-07-29T08:46:58;3.35;;;1.80;;
36963;SDS011;22878;48.616;35.326;2022-07-29T08:49:24;1.70;;;1.60;;
36963;SDS011;22878;48.616;35.326;2022-07-29T08:51:50;1.80;;;1.70;;
36963;SDS011;22878;48.616;35.326;2022-07-29T08:54:21;2.90;;;1.40;;
36963;SDS011;22878;48.616;35.326;2022-07-29T08:56:52;2.55;;;1.90;;
36963;SDS011;22878;48.616;35.326;2022-07-29T08:59:22;2.17;;;1.55;;
36963;SDS011;22878;48.616;35.326;2022-07-29T09:01:52;9.98;;;2.25;;
36963;SDS011;22878;48.616;35.326;2022-07-29T09:04:19;1.80;;;1.47;;
36963;SDS011;22878;48.616;35.326;2022-07-29T09:06:47;2.05;;;1.67;;
36963;SDS011;22878;48.616;35.326;2022-07-29T09:09:16;3.87;;;1.60;;
36963;SDS011;22878;48.616;35.326;2022-07-29T09:11:43;3.47;;;1.60;;
36963;SDS011;22878;48.616;35.326;2022-07-29T09:14:10;2.70;;;1.72;;
36963;SDS011;22878;48.616;35.326;2022-07-29T09:19:21;1.87;;;1.52;;
36963;SDS011;22878;48.616;35.326;2022-07-29T09:27:08;2.35;;;1.40;;
36963;SDS011;22878;48.616;35.326;2022-07-29T09:29:38;1.77;;;1.52;;
36963;SDS011;22878;48.616;35.326;2022-07-29T09:32:05;5.12;;;1.72;;
36963;SDS011;22878;48.616;35.326;2022-07-29T09:34:36;3.57;;;1.30;;
36963;SDS011;22878;48.616;35.326;2022-07-29T09:37:04;6.75;;;1.60;;
36963;SDS011;22878;48.616;35.326;2022-07-29T09:39:35;2.95;;;1.37;;
36963;SDS011;22878;48.616;35.326;2022-07-29T09:42:05;1.67;;;1.00;;
36963;SDS011;22878;48.616;35.326;2022-07-29T09:44:42;5.08;;;1.60;;
36963;SDS011;22878;48.616;35.326;2022-07-29T09:47:14;4.75;;;1.57;;
36963;SDS011;22878;48.616;35.326;2022-07-29T09:52:25;1.62;;;1.30;;
36963;SDS011;22878;48.616;35.326;2022-07-29T09:54:53;2.15;;;1.45;;
36963;SDS011;22878;48.616;35.326;2022-07-29T09:57:33;5.75;;;1.80;;
36963;SDS011;22878;48.616;35.326;2022-07-29T10:00:04;3.33;;;1.62;;
36963;SDS011;22878;48.616;35.326;2022-07-29T10:02:37;3.08;;;1.57;;
36963;SDS011;22878;48.616;35.326;2022-07-29T10:05:15;2.55;;;1.40;;
36963;SDS011;22878;48.616;35.326;2022-07-29T10:07:44;4.10;;;1.50;;
36963;SDS011;22878;48.616;35.326;2022-07-29T10:12:57;6.35;;;2.10;;
36963;SDS011;22878;48.616;35.326;2022-07-29T10:15:26;2.45;;;1.52;;
36963;SDS011;22878;48.616;35.326;2022-07-29T10:17:55;4.28;;;1.70;;
36963;SDS011;22878;48.616;35.326;2022-07-29T10:20:22;3.10;;;1.47;;
36963;SDS011;22878;48.616;35.326;2022-07-29T10:22:50;3.30;;;1.70;;
36963;SDS011;22878;48.616;35.326;2022-07-29T10:25:18;1.90;;;1.47;;
36963;SDS011;22878;48.616;35.326;2022-07-29T10:27:45;3.27;;;1.70;;
36963;SDS011;22878;48.616;35.326;2022-07-29T10:30:14;2.55;;;1.35;;
36963;SDS011;22878;48.616;35.326;2022-07-29T10:39:10;1.87;;;1.40;;
36963;SDS011;22878;48.616;35.326;2022-07-29T10:44:51;3.95;;;1.50;;
36963;SDS011;22878;48.616;35.326;2022-07-29T10:47:22;5.83;;;1.40;;
36963;SDS011;22878;48.616;35.326;2022-07-29T10:49:58;8.68;;;1.30;;
36963;SDS011;22878;48.616;35.326;2022-07-29T10:58:14;5.95;;;1.40;;
36963;SDS011;22878;48.616;35.326;2022-07-29T11:00:45;4.10;;;1.60;;
36963;SDS011;22878;48.616;35.326;2022-07-29T11:06:10;2.92;;;1.30;;
36963;SDS011;22878;48.616;35.326;2022-07-29T11:08:36;7.45;;;1.90;;
36963;SDS011;22878;48.616;35.326;2022-07-29T11:13:54;7.10;;;2.00;;
36963;SDS011;22878;48.616;35.326;2022-07-29T11:16:21;7.78;;;1.40;;
36963;SDS011;22878;48.616;35.326;2022-07-29T11:21:45;2.35;;;1.00;;
36963;SDS011;22878;48.616;35.326;2022-07-29T11:24:19;2.00;;;1.40;;
36963;SDS011;22878;48.616;35.326;2022-07-29T11:29:52;5.90;;;1.25;;
36963;SDS011;22878;48.616;35.326;2022-07-29T11:32:25;5.08;;;1.47;;
36963;SDS011;22878;48.616;35.326;2022-07-29T11:37:47;3.37;;;1.17;;
36963;SDS011;22878;48.616;35.326;2022-07-29T11:49:20;3.65;;;1.37;;
36963;SDS011;22878;48.616;35.326;2022-07-29T11:51:54;2.10;;;1.02;;
36963;SDS011;22878;48.616;35.326;2022-07-29T11:54:25;4.78;;;1.45;;
36963;SDS011;22878;48.616;35.326;2022-07-29T11:56:55;2.33;;;1.40;;
36963;SDS011;22878;48.616;35.326;2022-07-29T11:59:23;1.90;;;1.10;;
36963;SDS011;22878;48.616;35.326;2022-07-29T12:01:56;4.78;;;1.40;;
36963;SDS011;22878;48.616;35.326;2022-07-29T12:04:24;5.62;;;1.02;;
36963;SDS011;22878;48.616;35.326;2022-07-29T12:06:53;3.47;;;1.42;;
36963;SDS011;22878;48.616;35.326;2022-07-29T12:09:20;2.00;;;1.12;;
36963;SDS011;22878;48.616;35.326;2022-07-29T12:11:49;1.12;;;0.85;;
36963;SDS011;22878;48.616;35.326;2022-07-29T12:14:28;2.77;;;1.32;;
36963;SDS011;22878;48.616;35.326;2022-07-29T12:16:59;2.62;;;1.00;;
36963;SDS011;22878;48.616;35.326;2022-07-29T12:19:26;4.75;;;1.07;;
36963;SDS011;22878;48.616;35.326;2022-07-29T12:21:53;3.22;;;1.20;;
36963;SDS011;22878;48.616;35.326;2022-07-29T12:24:22;3.50;;;1.12;;
36963;SDS011;22878;48.616;35.326;2022-07-29T12:31:51;8.93;;;1.40;;
36963;SDS011;22878;48.616;35.326;2022-07-29T12:34:20;3.25;;;1.20;;
36963;SDS011;22878;48.616;35.326;2022-07-29T12:36:49;3.58;;;1.22;;
36963;SDS011;22878;48.616;35.326;2022-07-29T12:39:16;2.75;;;1.00;;
36963;SDS011;22878;48.616;35.326;2022-07-29T12:41:43;5.92;;;0.98;;
36963;SDS011;22878;48.616;35.326;2022-07-29T12:44:10;30.92;;;2.27;;
36963;SDS011;22878;48.616;35.326;2022-07-29T12:46:36;4.45;;;1.20;;
36963;SDS011;22878;48.616;35.326;2022-07-29T12:49:03;4.22;;;1.12;;
36963;SDS011;22878;48.616;35.326;2022-07-29T12:56:39;9.60;;;1.52;;
36963;SDS011;22878;48.616;35.326;2022-07-29T12:59:11;3.15;;;1.30;;
36963;SDS011;22878;48.616;35.326;2022-07-29T13:01:44;5.10;;;1.22;;
36963;SDS011;22878;48.616;35.326;2022-07-29T13:04:27;3.65;;;1.10;;
36963;SDS011;22878;48.616;35.326;2022-07-29T13:06:59;5.57;;;1.53;;
36963;SDS011;22878;48.616;35.326;2022-07-29T13:09:41;1.62;;;1.00;;
36963;SDS011;22878;48.616;35.326;2022-07-29T13:12:13;3.87;;;1.30;;
36963;SDS011;22878;48.616;35.326;2022-07-29T13:14:41;6.15;;;0.90;;
36963;SDS011;22878;48.616;35.326;2022-07-29T13:17:17;2.92;;;1.10;;
36963;SDS011;22878;48.616;35.326;2022-07-29T13:19:48;4.00;;;0.85;;
36963;SDS011;22878;48.616;35.326;2022-07-29T13:22:21;10.18;;;1.90;;
36963;SDS011;22878;48.616;35.326;2022-07-29T13:27:25;7.05;;;1.52;;
36963;SDS011;22878;48.616;35.326;2022-07-29T13:29:54;1.30;;;0.85;;
36963;SDS011;22878;48.616;35.326;2022-07-29T13:32:23;6.15;;;1.40;;
36963;SDS011;22878;48.616;35.326;2022-07-29T13:34:51;3.58;;;1.50;;
36963;SDS011;22878;48.616;35.326;2022-07-29T13:37:19;7.50;;;1.25;;
36963;SDS011;22878;48.616;35.326;2022-07-29T13:39:45;4.53;;;1.37;;
36963;SDS011;22878;48.616;35.326;2022-07-29T13:42:12;2.80;;;1.12;;
36963;SDS011;22878;48.616;35.326;2022-07-29T13:44:39;5.30;;;1.15;;
36963;SDS011;22878;48.616;35.326;2022-07-29T13:47:07;1.92;;;1.25;;
36963;SDS011;22878;48.616;35.326;2022-07-29T13:49:34;3.00;;;1.27;;
36963;SDS011;22878;48.616;35.326;2022-07-29T13:52:01;1.60;;;1.00;;
36963;SDS011;22878;48.616;35.326;2022-07-29T13:54:28;8.88;;;1.40;;
36963;SDS011;22878;48.616;35.326;2022-07-29T13:56:56;2.90;;;1.15;;
36963;SDS011;22878;48.616;35.326;2022-07-29T13:59:22;3.62;;;1.10;;
36963;SDS011;22878;48.616;35.326;2022-07-29T14:01:48;2.60;;;1.02;;
36963;SDS011;22878;48.616;35.326;2022-07-29T14:04:14;4.60;;;1.40;;
36963;SDS011;22878;48.616;35.326;2022-07-29T14:06:43;4.08;;;1.15;;
36963;SDS011;22878;48.616;35.326;2022-07-29T14:09:09;4.90;;;1.00;;
36963;SDS011;22878;48.616;35.326;2022-07-29T14:11:36;8.68;;;1.05;;
36963;SDS011;22878;48.616;35.326;2022-07-29T14:14:04;4.08;;;1.00;;
36963;SDS011;22878;48.616;35.326;2022-07-29T14:16:32;4.50;;;1.15;;
36963;SDS011;22878;48.616;35.326;2022-07-29T14:18:58;6.65;;;1.22;;
36963;SDS011;22878;48.616;35.326;2022-07-29T14:21:24;4.30;;;1.20;;
36963;SDS011;22878;48.616;35.326;2022-07-29T14:23:51;10.53;;;1.87;;
36963;SDS011;22878;48.616;35.326;2022-07-29T14:26:20;4.10;;;1.20;;
36963;SDS011;22878;48.616;35.326;2022-07-29T14:28:47;5.85;;;1.40;;
36963;SDS011;22878;48.616;35.326;2022-07-29T14:31:15;3.20;;;1.20;;
36963;SDS011;22878;48.616;35.326;2022-07-29T14:33:41;3.67;;;1.20;;
36963;SDS011;22878;48.616;35.326;2022-07-29T14:36:08;9.73;;;2.22;;
36963;SDS011;22878;48.616;35.326;2022-07-29T14:41:02;7.20;;;1.20;;
36963;SDS011;22878;48.616;35.326;2022-07-29T14:43:29;1.50;;;1.00;;
36963;SDS011;22878;48.616;35.326;2022-07-29T14:45:59;7.83;;;1.30;;
36963;SDS011;22878;48.616;35.326;2022-07-29T14:48:26;2.60;;;1.12;;
36963;SDS011;22878;48.616;35.326;2022-07-29T14:53:21;4.25;;;1.52;;
36963;SDS011;22878;48.616;35.326;2022-07-29T14:55:49;3.30;;;1.30;;
36963;SDS011;22878;48.616;35.326;2022-07-29T14:58:15;5.67;;;1.20;;
36963;SDS011;22878;48.616;35.326;2022-07-29T15:00:41;2.55;;;1.20;;
36963;SDS011;22878;48.616;35.326;2022-07-29T15:03:08;4.42;;;1.17;;
36963;SDS011;22878;48.616;35.326;2022-07-29T15:05:36;4.85;;;1.02;;
36963;SDS011;22878;48.616;35.326;2022-07-29T15:08:03;4.12;;;1.00;;
36963;SDS011;22878;48.616;35.326;2022-07-29T15:10:29;5.80;;;1.00;;
36963;SDS011;22878;48.616;35.326;2022-07-29T15:12:55;3.25;;;1.10;;
36963;SDS011;22878;48.616;35.326;2022-07-29T15:15:22;3.33;;;1.00;;
36963;SDS011;22878;48.616;35.326;2022-07-29T15:17:48;4.62;;;1.20;;
36963;SDS011;22878;48.616;35.326;2022-07-29T15:20:14;4.53;;;1.10;;
36963;SDS011;22878;48.616;35.326;2022-07-29T15:22:40;9.73;;;1.30;;
36963;SDS011;22878;48.616;35.326;2022-07-29T15:25:07;2.60;;;1.37;;
36963;SDS011;22878;48.616;35.326;2022-07-29T15:27:34;6.92;;;1.67;;
36963;SDS011;22878;48.616;35.326;2022-07-29T15:30:00;8.33;;;1.15;;
36963;SDS011;22878;48.616;35.326;2022-07-29T15:32:29;4.33;;;1.40;;
36963;SDS011;22878;48.616;35.326;2022-07-29T15:34:55;4.85;;;1.15;;
36963;SDS011;22878;48.616;35.326;2022-07-29T15:37:21;2.72;;;1.10;;
36963;SDS011;22878;48.616;35.326;2022-07-29T15:39:47;3.55;;;1.17;;
36963;SDS011;22878;48.616;35.326;2022-07-29T15:42:14;3.70;;;1.07;;
36963;SDS011;22878;48.616;35.326;2022-07-29T15:44:40;5.62;;;1.10;;
36963;SDS011;22878;48.616;35.326;2022-07-29T15:47:06;5.40;;;0.93;;
36963;SDS011;22878;48.616;35.326;2022-07-29T15:49:37;6.70;;;1.05;;
36963;SDS011;22878;48.616;35.326;2022-07-29T15:52:07;2.62;;;0.90;;
36963;SDS011;22878;48.616;35.326;2022-07-29T15:54:37;3.80;;;1.10;;
36963;SDS011;22878;48.616;35.326;2022-07-29T15:57:06;11.28;;;1.30;;
36963;SDS011;22878;48.616;35.326;2022-07-29T15:59:32;7.42;;;1.00;;
36963;SDS011;22878;48.616;35.326;2022-07-29T16:01:59;5.05;;;1.00;;
36963;SDS011;22878;48.616;35.326;2022-07-29T16:04:26;19.80;;;1.55;;
36963;SDS011;22878;48.616;35.326;2022-07-29T16:06:52;4.92;;;1.15;;
36963;SDS011;22878;48.616;35.326;2022-07-29T16:09:18;4.83;;;1.22;;
36963;SDS011;22878;48.616;35.326;2022-07-29T16:11:45;5.40;;;1.12;;
36963;SDS011;22878;48.616;35.326;2022-07-29T16:14:13;7.00;;;1.20;;
36963;SDS011;22878;48.616;35.326;2022-07-29T16:16:39;6.95;;;1.07;;
36963;SDS011;22878;48.616;35.326;2022-07-29T16:19:06;4.42;;;1.20;;
36963;SDS011;22878;48.616;35.326;2022-07-29T16:21:33;7.20;;;1.30;;
36963;SDS011;22878;48.616;35.326;2022-07-29T16:24:01;7.42;;;1.17;;
36963;SDS011;22878;48.616;35.326;2022-07-29T16:26:28;5.40;;;1.20;;